sensor_id;sensor_type;location;lat;lon;timestamp;P1;durP1;ratioP1;P2;durP2;ratioP2
29358;SDS011;16347;53.232;6.556;2023-08-01T00:01:15;20.25;;;5.55;;
29358;SDS011;16347;53.232;6.556;2023-08-01T00:03:43;18.08;;;5.78;;
29358;SDS011;16347;53.232;6.556;2023-08-01T00:06:11;25.70;;;4.75;;
29358;SDS011;16347;53.232;6.556;2023-08-01T00:08:40;21.33;;;4.55;;
29358;SDS011;16347;53.232;6.556;2023-08-01T00:11:07;20.25;;;5.60;;
29358;SDS011;16347;53.232;6.556;2023-08-01T00:13:36;18.55;;;4.63;;
29358;SDS011;16347;53.232;6.556;2023-08-01T00:16:05;14.30;;;4.55;;
29358;SDS011;16347;53.232;6.556;2023-08-01T00:18:33;15.38;;;4.72;;
29358;SDS011;16347;53.232;6.556;2023-08-01T00:21:02;16.15;;;4.20;;
29358;SDS011;16347;53.232;6.556;2023-08-01T00:23:31;13.60;;;3.92;;
29358;SDS011;16347;53.232;6.556;2023-08-01T00:26:01;12.32;;;4.38;;
29358;SDS011;16347;53.232;6.556;2023-08-01T00:28:29;14.35;;;4.43;;
29358;SDS011;16347;53.232;6.556;2023-08-01T00:31:08;15.68;;;5.03;;
29358;SDS011;16347;53.232;6.556;2023-08-01T00:33:38;19.15;;;5.25;;
29358;SDS011;16347;53.232;6.556;2023-08-01T00:36:07;14.63;;;4.28;;
29358;SDS011;16347;53.232;6.556;2023-08-01T00:38:37;14.25;;;4.00;;
29358;SDS011;16347;53.232;6.556;2023-08-01T00:41:05;18.23;;;4.57;;
29358;SDS011;16347;53.232;6.556;2023-08-01T00:43:33;15.82;;;3.85;;
29358;SDS011;16347;53.232;6.556;2023-08-01T00:46:01;16.80;;;4.68;;
29358;SDS011;16347;53.232;6.556;2023-08-01T00:48:33;16.00;;;4.88;;
29358;SDS011;16347;53.232;6.556;2023-08-01T00:51:03;11.13;;;3.58;;
29358;SDS011;16347;53.232;6.556;2023-08-01T00:53:32;17.55;;;3.95;;
29358;SDS011;16347;53.232;6.556;2023-08-01T00:56:02;12.02;;;3.83;;
29358;SDS011;16347;53.232;6.556;2023-08-01T00:58:31;15.30;;;4.22;;
29358;SDS011;16347;53.232;6.556;2023-08-01T01:00:59;13.43;;;3.90;;
29358;SDS011;16347;53.232;6.556;2023-08-01T01:03:27;10.65;;;3.97;;
29358;SDS011;16347;53.232;6.556;2023-08-01T01:06:00;13.80;;;3.55;;
29358;SDS011;16347;53.232;6.556;2023-08-01T01:08:34;11.73;;;3.92;;
29358;SDS011;16347;53.232;6.556;2023-08-01T01:11:02;12.32;;;4.28;;
29358;SDS011;16347;53.232;6.556;2023-08-01T01:13:30;13.68;;;4.13;;
29358;SDS011;16347;53.232;6.556;2023-08-01T01:15:59;13.25;;;4.03;;
29358;SDS011;16347;53.232;6.556;2023-08-01T01:18:27;9.20;;;3.97;;
29358;SDS011;16347;53.232;6.556;2023-08-01T01:20:56;14.10;;;3.78;;
29358;SDS011;16347;53.232;6.556;2023-08-01T01:23:24;12.00;;;3.92;;
29358;SDS011;16347;53.232;6.556;2023-08-01T01:25:54;17.63;;;4.65;;
29358;SDS011;16347;53.232;6.556;2023-08-01T01:28:24;10.43;;;3.83;;
29358;SDS011;16347;53.232;6.556;2023-08-01T01:30:53;11.05;;;3.47;;
29358;SDS011;16347;53.232;6.556;2023-08-01T01:33:22;15.82;;;4.63;;
29358;SDS011;16347;53.232;6.556;2023-08-01T01:35:51;16.08;;;5.30;;
29358;SDS011;16347;53.232;6.556;2023-08-01T01:38:21;11.25;;;4.22;;
29358;SDS011;16347;53.232;6.556;2023-08-01T01:40:49;9.98;;;4.25;;
29358;SDS011;16347;53.232;6.556;2023-08-01T01:43:16;13.27;;;4.63;;
29358;SDS011;16347;53.232;6.556;2023-08-01T01:45:44;12.75;;;4.00;;
29358;SDS011;16347;53.232;6.556;2023-08-01T01:48:13;13.85;;;3.92;;
29358;SDS011;16347;53.232;6.556;2023-08-01T01:50:41;11.35;;;4.70;;
29358;SDS011;16347;53.232;6.556;2023-08-01T01:53:09;9.40;;;3.75;;
29358;SDS011;16347;53.232;6.556;2023-08-01T01:55:39;11.90;;;4.07;;
29358;SDS011;16347;53.232;6.556;2023-08-01T01:58:07;12.60;;;3.92;;
29358;SDS011;16347;53.232;6.556;2023-08-01T02:00:38;16.98;;;3.78;;
29358;SDS011;16347;53.232;6.556;2023-08-01T02:03:06;12.77;;;4.20;;
29358;SDS011;16347;53.232;6.556;2023-08-01T02:05:36;16.33;;;4.63;;
29358;SDS011;16347;53.232;6.556;2023-08-01T02:08:04;11.60;;;3.90;;
29358;SDS011;16347;53.232;6.556;2023-08-01T02:10:32;10.30;;;4.57;;
29358;SDS011;16347;53.232;6.556;2023-08-01T02:13:01;10.40;;;4.22;;
29358;SDS011;16347;53.232;6.556;2023-08-01T02:15:29;13.27;;;4.30;;
29358;SDS011;16347;53.232;6.556;2023-08-01T02:17:57;11.45;;;4.20;;
29358;SDS011;16347;53.232;6.556;2023-08-01T02:20:25;14.00;;;3.92;;
29358;SDS011;16347;53.232;6.556;2023-08-01T02:22:55;11.43;;;4.35;;
29358;SDS011;16347;53.232;6.556;2023-08-01T02:25:23;14.60;;;4.32;;
29358;SDS011;16347;53.232;6.556;2023-08-01T02:27:51;13.98;;;4.30;;
29358;SDS011;16347;53.232;6.556;2023-08-01T02:30:21;11.77;;;4.38;;
29358;SDS011;16347;53.232;6.556;2023-08-01T02:32:48;12.30;;;4.30;;
29358;SDS011;16347;53.232;6.556;2023-08-01T02:35:16;9.95;;;4.32;;
29358;SDS011;16347;53.232;6.556;2023-08-01T02:37:44;12.07;;;4.40;;
29358;SDS011;16347;53.232;6.556;2023-08-01T02:40:13;11.68;;;3.80;;
29358;SDS011;16347;53.232;6.556;2023-08-01T02:42:41;12.57;;;4.68;;
29358;SDS011;16347;53.232;6.556;2023-08-01T02:45:09;9.65;;;4.28;;
29358;SDS011;16347;53.232;6.556;2023-08-01T02:47:38;12.60;;;4.88;;
29358;SDS011;16347;53.232;6.556;2023-08-01T02:50:07;17.85;;;4.18;;
29358;SDS011;16347;53.232;6.556;2023-08-01T02:52:35;13.75;;;3.88;;
29358;SDS011;16347;53.232;6.556;2023-08-01T02:55:03;9.68;;;4.32;;
29358;SDS011;16347;53.232;6.556;2023-08-01T02:57:31;11.00;;;3.58;;
29358;SDS011;16347;53.232;6.556;2023-08-01T02:59:59;10.70;;;4.32;;
29358;SDS011;16347;53.232;6.556;2023-08-01T03:02:31;15.98;;;4.57;;
29358;SDS011;16347;53.232;6.556;2023-08-01T03:05:00;12.98;;;5.38;;
29358;SDS011;16347;53.232;6.556;2023-08-01T03:07:31;12.65;;;3.90;;
29358;SDS011;16347;53.232;6.556;2023-08-01T03:09:59;16.08;;;4.22;;
29358;SDS011;16347;53.232;6.556;2023-08-01T03:12:27;16.67;;;4.45;;
29358;SDS011;16347;53.232;6.556;2023-08-01T03:14:55;13.52;;;4.28;;
29358;SDS011;16347;53.232;6.556;2023-08-01T03:17:23;15.48;;;4.50;;
29358;SDS011;16347;53.232;6.556;2023-08-01T03:19:50;17.10;;;5.07;;
29358;SDS011;16347;53.232;6.556;2023-08-01T03:22:20;12.27;;;4.60;;
29358;SDS011;16347;53.232;6.556;2023-08-01T03:24:48;16.92;;;4.90;;
29358;SDS011;16347;53.232;6.556;2023-08-01T03:27:16;14.40;;;4.80;;
29358;SDS011;16347;53.232;6.556;2023-08-01T03:29:44;20.70;;;5.28;;
29358;SDS011;16347;53.232;6.556;2023-08-01T03:32:13;11.57;;;4.70;;
29358;SDS011;16347;53.232;6.556;2023-08-01T03:34:41;14.45;;;4.97;;
29358;SDS011;16347;53.232;6.556;2023-08-01T03:37:09;15.18;;;5.75;;
29358;SDS011;16347;53.232;6.556;2023-08-01T03:39:39;17.15;;;5.95;;
29358;SDS011;16347;53.232;6.556;2023-08-01T03:42:07;10.18;;;4.85;;
29358;SDS011;16347;53.232;6.556;2023-08-01T03:44:35;10.55;;;5.10;;
29358;SDS011;16347;53.232;6.556;2023-08-01T03:47:03;16.17;;;4.80;;
29358;SDS011;16347;53.232;6.556;2023-08-01T03:49:32;12.40;;;4.75;;
29358;SDS011;16347;53.232;6.556;2023-08-01T03:52:00;10.55;;;5.00;;
29358;SDS011;16347;53.232;6.556;2023-08-01T03:54:28;12.35;;;4.68;;
29358;SDS011;16347;53.232;6.556;2023-08-01T03:56:58;14.52;;;4.63;;
29358;SDS011;16347;53.232;6.556;2023-08-01T03:59:26;11.85;;;4.50;;
29358;SDS011;16347;53.232;6.556;2023-08-01T04:01:53;14.88;;;4.93;;
29358;SDS011;16347;53.232;6.556;2023-08-01T04:04:21;10.45;;;4.28;;
29358;SDS011;16347;53.232;6.556;2023-08-01T04:06:49;9.40;;;3.80;;
29358;SDS011;16347;53.232;6.556;2023-08-01T04:09:17;9.82;;;4.00;;
29358;SDS011;16347;53.232;6.556;2023-08-01T04:11:45;11.30;;;4.07;;
29358;SDS011;16347;53.232;6.556;2023-08-01T04:14:15;8.25;;;3.38;;
29358;SDS011;16347;53.232;6.556;2023-08-01T04:16:43;11.25;;;3.40;;
29358;SDS011;16347;53.232;6.556;2023-08-01T04:19:11;14.82;;;3.40;;
29358;SDS011;16347;53.232;6.556;2023-08-01T04:21:39;10.27;;;3.40;;
29358;SDS011;16347;53.232;6.556;2023-08-01T04:24:07;10.60;;;3.10;;
29358;SDS011;16347;53.232;6.556;2023-08-01T04:26:35;10.25;;;3.00;;
29358;SDS011;16347;53.232;6.556;2023-08-01T04:29:04;10.15;;;3.33;;
29358;SDS011;16347;53.232;6.556;2023-08-01T04:31:34;9.00;;;3.25;;
29358;SDS011;16347;53.232;6.556;2023-08-01T04:34:02;7.50;;;3.15;;
29358;SDS011;16347;53.232;6.556;2023-08-01T04:36:30;8.93;;;3.30;;
29358;SDS011;16347;53.232;6.556;2023-08-01T04:38:58;10.68;;;3.08;;
29358;SDS011;16347;53.232;6.556;2023-08-01T04:41:26;9.27;;;3.00;;
29358;SDS011;16347;53.232;6.556;2023-08-01T04:43:54;11.38;;;2.65;;
29358;SDS011;16347;53.232;6.556;2023-08-01T04:46:22;13.90;;;3.20;;
29358;SDS011;16347;53.232;6.556;2023-08-01T04:48:51;8.82;;;2.80;;
29358;SDS011;16347;53.232;6.556;2023-08-01T04:51:19;9.60;;;3.05;;
29358;SDS011;16347;53.232;6.556;2023-08-01T04:53:47;7.88;;;2.88;;
29358;SDS011;16347;53.232;6.556;2023-08-01T04:56:15;14.65;;;3.08;;
29358;SDS011;16347;53.232;6.556;2023-08-01T04:58:43;9.50;;;2.80;;
29358;SDS011;16347;53.232;6.556;2023-08-01T05:01:12;13.00;;;2.78;;
29358;SDS011;16347;53.232;6.556;2023-08-01T05:03:40;14.93;;;3.58;;
29358;SDS011;16347;53.232;6.556;2023-08-01T05:06:09;8.45;;;2.60;;
29358;SDS011;16347;53.232;6.556;2023-08-01T05:08:37;14.60;;;2.92;;
29358;SDS011;16347;53.232;6.556;2023-08-01T05:11:05;17.35;;;3.53;;
29358;SDS011;16347;53.232;6.556;2023-08-01T05:13:33;13.05;;;2.60;;
29358;SDS011;16347;53.232;6.556;2023-08-01T05:16:01;8.90;;;2.35;;
29358;SDS011;16347;53.232;6.556;2023-08-01T05:18:29;15.38;;;2.53;;
29358;SDS011;16347;53.232;6.556;2023-08-01T05:20:57;12.75;;;2.45;;
29358;SDS011;16347;53.232;6.556;2023-08-01T05:23:26;13.07;;;2.53;;
29358;SDS011;16347;53.232;6.556;2023-08-01T05:25:54;12.98;;;2.58;;
29358;SDS011;16347;53.232;6.556;2023-08-01T05:28:22;13.07;;;2.80;;
29358;SDS011;16347;53.232;6.556;2023-08-01T05:30:50;10.85;;;2.70;;
29358;SDS011;16347;53.232;6.556;2023-08-01T05:33:17;11.98;;;3.08;;
29358;SDS011;16347;53.232;6.556;2023-08-01T05:35:45;8.05;;;2.58;;
29358;SDS011;16347;53.232;6.556;2023-08-01T05:38:13;14.63;;;2.22;;
29358;SDS011;16347;53.232;6.556;2023-08-01T05:40:43;9.55;;;2.90;;
29358;SDS011;16347;53.232;6.556;2023-08-01T05:43:11;12.15;;;2.90;;
29358;SDS011;16347;53.232;6.556;2023-08-01T05:45:39;5.75;;;2.85;;
29358;SDS011;16347;53.232;6.556;2023-08-01T05:48:07;8.57;;;2.72;;
29358;SDS011;16347;53.232;6.556;2023-08-01T05:50:35;18.75;;;3.00;;
29358;SDS011;16347;53.232;6.556;2023-08-01T05:53:03;8.65;;;2.35;;
29358;SDS011;16347;53.232;6.556;2023-08-01T05:55:32;11.10;;;2.45;;
29358;SDS011;16347;53.232;6.556;2023-08-01T05:58:01;6.90;;;2.40;;
29358;SDS011;16347;53.232;6.556;2023-08-01T06:00:29;9.77;;;2.17;;
29358;SDS011;16347;53.232;6.556;2023-08-01T06:02:58;10.38;;;2.67;;
29358;SDS011;16347;53.232;6.556;2023-08-01T06:05:27;8.43;;;2.63;;
29358;SDS011;16347;53.232;6.556;2023-08-01T06:07:55;14.60;;;3.88;;
29358;SDS011;16347;53.232;6.556;2023-08-01T06:10:23;5.45;;;2.35;;
29358;SDS011;16347;53.232;6.556;2023-08-01T06:12:51;7.68;;;2.60;;
29358;SDS011;16347;53.232;6.556;2023-08-01T06:15:21;8.88;;;2.78;;
29358;SDS011;16347;53.232;6.556;2023-08-01T06:17:49;7.03;;;2.78;;
29358;SDS011;16347;53.232;6.556;2023-08-01T06:20:17;7.07;;;2.60;;
29358;SDS011;16347;53.232;6.556;2023-08-01T06:22:45;9.60;;;3.05;;
29358;SDS011;16347;53.232;6.556;2023-08-01T06:25:13;6.93;;;2.47;;
29358;SDS011;16347;53.232;6.556;2023-08-01T06:27:42;7.78;;;2.70;;
29358;SDS011;16347;53.232;6.556;2023-08-01T06:30:10;8.63;;;2.83;;
29358;SDS011;16347;53.232;6.556;2023-08-01T06:32:40;6.30;;;2.35;;
29358;SDS011;16347;53.232;6.556;2023-08-01T06:35:08;10.00;;;2.75;;
29358;SDS011;16347;53.232;6.556;2023-08-01T06:37:36;10.55;;;2.83;;
29358;SDS011;16347;53.232;6.556;2023-08-01T06:40:04;10.55;;;2.17;;
29358;SDS011;16347;53.232;6.556;2023-08-01T06:42:34;5.78;;;2.13;;
29358;SDS011;16347;53.232;6.556;2023-08-01T06:45:02;7.20;;;2.33;;
29358;SDS011;16347;53.232;6.556;2023-08-01T06:47:30;7.47;;;2.17;;
29358;SDS011;16347;53.232;6.556;2023-08-01T06:49:59;4.30;;;1.92;;
29358;SDS011;16347;53.232;6.556;2023-08-01T06:52:27;7.32;;;2.13;;
29358;SDS011;16347;53.232;6.556;2023-08-01T06:54:55;5.78;;;2.00;;
29358;SDS011;16347;53.232;6.556;2023-08-01T06:57:23;10.38;;;1.98;;
29358;SDS011;16347;53.232;6.556;2023-08-01T06:59:51;7.38;;;1.80;;
29358;SDS011;16347;53.232;6.556;2023-08-01T07:02:19;6.80;;;2.08;;
29358;SDS011;16347;53.232;6.556;2023-08-01T07:04:47;9.30;;;2.25;;
29358;SDS011;16347;53.232;6.556;2023-08-01T07:07:17;5.30;;;1.88;;
29358;SDS011;16347;53.232;6.556;2023-08-01T07:09:45;6.68;;;1.95;;
29358;SDS011;16347;53.232;6.556;2023-08-01T07:12:13;5.32;;;2.05;;
29358;SDS011;16347;53.232;6.556;2023-08-01T07:14:40;8.90;;;2.00;;
29358;SDS011;16347;53.232;6.556;2023-08-01T07:17:09;8.30;;;2.00;;
29358;SDS011;16347;53.232;6.556;2023-08-01T07:19:37;6.13;;;1.83;;
29358;SDS011;16347;53.232;6.556;2023-08-01T07:22:05;6.85;;;1.80;;
29358;SDS011;16347;53.232;6.556;2023-08-01T07:24:34;9.65;;;2.00;;
29358;SDS011;16347;53.232;6.556;2023-08-01T07:27:02;4.93;;;1.58;;
29358;SDS011;16347;53.232;6.556;2023-08-01T07:29:31;9.95;;;2.22;;
29358;SDS011;16347;53.232;6.556;2023-08-01T07:31:59;11.90;;;2.17;;
29358;SDS011;16347;53.232;6.556;2023-08-01T07:34:28;5.68;;;1.30;;
29358;SDS011;16347;53.232;6.556;2023-08-01T07:36:56;9.88;;;2.03;;
29358;SDS011;16347;53.232;6.556;2023-08-01T07:39:24;3.50;;;1.38;;
29358;SDS011;16347;53.232;6.556;2023-08-01T07:41:54;8.82;;;1.52;;
29358;SDS011;16347;53.232;6.556;2023-08-01T07:44:23;12.35;;;1.63;;
29358;SDS011;16347;53.232;6.556;2023-08-01T07:46:51;7.80;;;1.17;;
29358;SDS011;16347;53.232;6.556;2023-08-01T07:49:19;8.80;;;1.70;;
29358;SDS011;16347;53.232;6.556;2023-08-01T07:51:47;10.73;;;1.75;;
29358;SDS011;16347;53.232;6.556;2023-08-01T07:54:15;6.22;;;1.50;;
29358;SDS011;16347;53.232;6.556;2023-08-01T07:56:43;11.88;;;2.53;;
29358;SDS011;16347;53.232;6.556;2023-08-01T07:59:16;11.30;;;1.88;;
29358;SDS011;16347;53.232;6.556;2023-08-01T08:01:44;10.65;;;1.65;;
29358;SDS011;16347;53.232;6.556;2023-08-01T08:04:12;11.50;;;1.70;;
29358;SDS011;16347;53.232;6.556;2023-08-01T08:06:40;8.32;;;1.25;;
29358;SDS011;16347;53.232;6.556;2023-08-01T08:09:09;8.30;;;1.80;;
29358;SDS011;16347;53.232;6.556;2023-08-01T08:11:37;6.65;;;1.45;;
29358;SDS011;16347;53.232;6.556;2023-08-01T08:14:05;11.68;;;2.30;;
29358;SDS011;16347;53.232;6.556;2023-08-01T08:16:34;9.40;;;1.38;;
29358;SDS011;16347;53.232;6.556;2023-08-01T08:19:02;6.22;;;1.60;;
29358;SDS011;16347;53.232;6.556;2023-08-01T08:21:30;9.05;;;1.52;;
29358;SDS011;16347;53.232;6.556;2023-08-01T08:23:58;4.78;;;1.70;;
29358;SDS011;16347;53.232;6.556;2023-08-01T08:26:27;4.30;;;1.23;;
29358;SDS011;16347;53.232;6.556;2023-08-01T08:28:55;11.00;;;1.55;;
29358;SDS011;16347;53.232;6.556;2023-08-01T08:31:23;5.05;;;1.20;;
29358;SDS011;16347;53.232;6.556;2023-08-01T08:33:53;5.18;;;1.15;;
29358;SDS011;16347;53.232;6.556;2023-08-01T08:36:21;6.13;;;1.55;;
29358;SDS011;16347;53.232;6.556;2023-08-01T08:38:49;11.98;;;1.73;;
29358;SDS011;16347;53.232;6.556;2023-08-01T08:41:19;10.43;;;1.80;;
29358;SDS011;16347;53.232;6.556;2023-08-01T08:43:48;8.27;;;1.60;;
29358;SDS011;16347;53.232;6.556;2023-08-01T08:46:17;6.90;;;1.50;;
29358;SDS011;16347;53.232;6.556;2023-08-01T08:48:47;7.13;;;1.85;;
29358;SDS011;16347;53.232;6.556;2023-08-01T08:51:17;5.95;;;1.27;;
29358;SDS011;16347;53.232;6.556;2023-08-01T08:53:45;10.77;;;2.00;;
29358;SDS011;16347;53.232;6.556;2023-08-01T08:56:14;11.18;;;1.83;;
29358;SDS011;16347;53.232;6.556;2023-08-01T08:58:43;5.85;;;1.50;;
29358;SDS011;16347;53.232;6.556;2023-08-01T09:01:13;4.53;;;1.58;;
29358;SDS011;16347;53.232;6.556;2023-08-01T09:03:42;7.13;;;1.58;;
29358;SDS011;16347;53.232;6.556;2023-08-01T09:06:12;7.10;;;1.60;;
29358;SDS011;16347;53.232;6.556;2023-08-01T09:08:45;12.43;;;1.65;;
29358;SDS011;16347;53.232;6.556;2023-08-01T09:11:18;8.25;;;1.65;;
29358;SDS011;16347;53.232;6.556;2023-08-01T09:13:46;9.98;;;1.40;;
29358;SDS011;16347;53.232;6.556;2023-08-01T09:16:15;8.45;;;1.60;;
29358;SDS011;16347;53.232;6.556;2023-08-01T09:18:47;8.73;;;1.95;;
29358;SDS011;16347;53.232;6.556;2023-08-01T09:21:17;12.75;;;2.55;;
29358;SDS011;16347;53.232;6.556;2023-08-01T09:23:47;9.27;;;2.20;;
29358;SDS011;16347;53.232;6.556;2023-08-01T09:26:17;6.75;;;1.70;;
29358;SDS011;16347;53.232;6.556;2023-08-01T09:28:55;9.52;;;1.83;;
29358;SDS011;16347;53.232;6.556;2023-08-01T09:31:26;8.93;;;1.70;;
29358;SDS011;16347;53.232;6.556;2023-08-01T09:33:57;9.60;;;1.90;;
29358;SDS011;16347;53.232;6.556;2023-08-01T09:36:25;11.30;;;1.70;;
29358;SDS011;16347;53.232;6.556;2023-08-01T09:38:59;3.75;;;1.20;;
29358;SDS011;16347;53.232;6.556;2023-08-01T09:41:28;7.15;;;1.33;;
29358;SDS011;16347;53.232;6.556;2023-08-01T09:43:57;5.05;;;1.20;;
29358;SDS011;16347;53.232;6.556;2023-08-01T09:46:25;8.07;;;1.45;;
29358;SDS011;16347;53.232;6.556;2023-08-01T09:48:54;9.45;;;1.63;;
29358;SDS011;16347;53.232;6.556;2023-08-01T09:51:22;6.45;;;1.23;;
29358;SDS011;16347;53.232;6.556;2023-08-01T09:53:50;7.68;;;1.10;;
29358;SDS011;16347;53.232;6.556;2023-08-01T09:56:22;5.25;;;1.40;;
29358;SDS011;16347;53.232;6.556;2023-08-01T09:58:52;7.72;;;1.80;;
29358;SDS011;16347;53.232;6.556;2023-08-01T10:01:22;5.75;;;1.50;;
29358;SDS011;16347;53.232;6.556;2023-08-01T10:03:52;5.82;;;1.20;;
29358;SDS011;16347;53.232;6.556;2023-08-01T10:06:21;6.18;;;1.40;;
29358;SDS011;16347;53.232;6.556;2023-08-01T10:08:51;6.55;;;1.60;;
29358;SDS011;16347;53.232;6.556;2023-08-01T10:11:20;9.48;;;2.10;;
29358;SDS011;16347;53.232;6.556;2023-08-01T10:13:50;4.00;;;1.50;;
29358;SDS011;16347;53.232;6.556;2023-08-01T10:16:18;6.00;;;1.20;;
29358;SDS011;16347;53.232;6.556;2023-08-01T10:18:46;6.70;;;1.38;;
29358;SDS011;16347;53.232;6.556;2023-08-01T10:21:15;7.07;;;1.33;;
29358;SDS011;16347;53.232;6.556;2023-08-01T10:23:44;6.10;;;1.48;;
29358;SDS011;16347;53.232;6.556;2023-08-01T10:26:14;8.70;;;1.10;;
29358;SDS011;16347;53.232;6.556;2023-08-01T10:28:51;6.22;;;1.40;;
29358;SDS011;16347;53.232;6.556;2023-08-01T10:31:20;6.53;;;1.77;;
29358;SDS011;16347;53.232;6.556;2023-08-01T10:33:49;7.30;;;1.65;;
29358;SDS011;16347;53.232;6.556;2023-08-01T10:36:19;4.90;;;1.45;;
29358;SDS011;16347;53.232;6.556;2023-08-01T10:38:49;5.32;;;1.42;;
29358;SDS011;16347;53.232;6.556;2023-08-01T10:41:18;6.65;;;1.65;;
29358;SDS011;16347;53.232;6.556;2023-08-01T10:43:47;8.60;;;1.58;;
29358;SDS011;16347;53.232;6.556;2023-08-01T10:46:17;11.07;;;1.70;;
29358;SDS011;16347;53.232;6.556;2023-08-01T10:48:49;11.20;;;1.98;;
29358;SDS011;16347;53.232;6.556;2023-08-01T10:51:17;5.60;;;1.20;;
29358;SDS011;16347;53.232;6.556;2023-08-01T10:53:46;5.63;;;1.33;;
29358;SDS011;16347;53.232;6.556;2023-08-01T10:56:15;10.35;;;2.03;;
29358;SDS011;16347;53.232;6.556;2023-08-01T10:58:45;5.88;;;1.52;;
29358;SDS011;16347;53.232;6.556;2023-08-01T11:01:16;7.07;;;1.63;;
29358;SDS011;16347;53.232;6.556;2023-08-01T11:03:44;8.68;;;1.67;;
29358;SDS011;16347;53.232;6.556;2023-08-01T11:06:12;5.45;;;1.17;;
29358;SDS011;16347;53.232;6.556;2023-08-01T11:08:41;11.15;;;1.85;;
29358;SDS011;16347;53.232;6.556;2023-08-01T11:11:10;5.53;;;1.35;;
29358;SDS011;16347;53.232;6.556;2023-08-01T11:13:49;5.53;;;1.77;;
29358;SDS011;16347;53.232;6.556;2023-08-01T11:16:19;10.05;;;1.67;;
29358;SDS011;16347;53.232;6.556;2023-08-01T11:18:48;3.17;;;1.08;;
29358;SDS011;16347;53.232;6.556;2023-08-01T11:21:24;7.75;;;1.70;;
29358;SDS011;16347;53.232;6.556;2023-08-01T11:23:54;15.10;;;1.83;;
29358;SDS011;16347;53.232;6.556;2023-08-01T11:26:23;22.05;;;3.72;;
29358;SDS011;16347;53.232;6.556;2023-08-01T11:28:53;10.32;;;2.13;;
29358;SDS011;16347;53.232;6.556;2023-08-01T11:31:22;8.88;;;1.60;;
29358;SDS011;16347;53.232;6.556;2023-08-01T11:33:55;7.47;;;1.30;;
29358;SDS011;16347;53.232;6.556;2023-08-01T11:36:24;7.03;;;1.97;;
29358;SDS011;16347;53.232;6.556;2023-08-01T11:38:54;9.27;;;1.17;;
29358;SDS011;16347;53.232;6.556;2023-08-01T11:41:24;7.53;;;1.20;;
29358;SDS011;16347;53.232;6.556;2023-08-01T11:43:54;4.03;;;1.30;;
29358;SDS011;16347;53.232;6.556;2023-08-01T11:46:29;3.72;;;0.85;;
29358;SDS011;16347;53.232;6.556;2023-08-01T11:48:58;5.60;;;0.95;;
29358;SDS011;16347;53.232;6.556;2023-08-01T11:51:27;6.28;;;1.52;;
29358;SDS011;16347;53.232;6.556;2023-08-01T11:53:58;9.98;;;1.55;;
29358;SDS011;16347;53.232;6.556;2023-08-01T11:56:27;4.80;;;1.30;;
29358;SDS011;16347;53.232;6.556;2023-08-01T11:58:56;6.75;;;1.33;;
29358;SDS011;16347;53.232;6.556;2023-08-01T12:01:26;8.15;;;1.42;;
29358;SDS011;16347;53.232;6.556;2023-08-01T12:03:56;6.35;;;1.30;;
29358;SDS011;16347;53.232;6.556;2023-08-01T12:06:25;7.88;;;1.25;;
29358;SDS011;16347;53.232;6.556;2023-08-01T12:08:53;3.30;;;0.88;;
29358;SDS011;16347;53.232;6.556;2023-08-01T12:11:21;10.48;;;1.20;;
29358;SDS011;16347;53.232;6.556;2023-08-01T12:14:03;11.00;;;1.33;;
29358;SDS011;16347;53.232;6.556;2023-08-01T12:16:35;8.98;;;1.15;;
29358;SDS011;16347;53.232;6.556;2023-08-01T12:19:05;8.18;;;1.55;;
29358;SDS011;16347;53.232;6.556;2023-08-01T12:21:34;5.60;;;1.05;;
29358;SDS011;16347;53.232;6.556;2023-08-01T12:24:03;10.77;;;1.45;;
29358;SDS011;16347;53.232;6.556;2023-08-01T12:26:31;8.35;;;1.25;;
29358;SDS011;16347;53.232;6.556;2023-08-01T12:28:59;5.28;;;1.40;;
29358;SDS011;16347;53.232;6.556;2023-08-01T12:31:27;9.00;;;1.20;;
29358;SDS011;16347;53.232;6.556;2023-08-01T12:33:57;6.32;;;1.30;;
29358;SDS011;16347;53.232;6.556;2023-08-01T12:36:25;5.72;;;1.30;;
29358;SDS011;16347;53.232;6.556;2023-08-01T12:38:54;7.63;;;1.42;;
29358;SDS011;16347;53.232;6.556;2023-08-01T12:41:22;6.55;;;1.48;;
29358;SDS011;16347;53.232;6.556;2023-08-01T12:43:50;12.73;;;1.65;;
29358;SDS011;16347;53.232;6.556;2023-08-01T12:46:18;7.30;;;1.38;;
29358;SDS011;16347;53.232;6.556;2023-08-01T12:48:46;12.13;;;1.67;;
29358;SDS011;16347;53.232;6.556;2023-08-01T12:51:16;5.25;;;1.10;;
29358;SDS011;16347;53.232;6.556;2023-08-01T12:53:44;12.90;;;2.17;;
29358;SDS011;16347;53.232;6.556;2023-08-01T12:56:13;12.35;;;1.80;;
29358;SDS011;16347;53.232;6.556;2023-08-01T12:58:41;5.13;;;1.42;;
29358;SDS011;16347;53.232;6.556;2023-08-01T13:01:09;6.38;;;1.17;;
29358;SDS011;16347;53.232;6.556;2023-08-01T13:03:37;5.10;;;1.33;;
29358;SDS011;16347;53.232;6.556;2023-08-01T13:06:05;5.07;;;1.10;;
29358;SDS011;16347;53.232;6.556;2023-08-01T13:08:36;23.20;;;3.75;;
29358;SDS011;16347;53.232;6.556;2023-08-01T13:11:09;10.15;;;1.77;;
29358;SDS011;16347;53.232;6.556;2023-08-01T13:13:38;14.02;;;2.05;;
29358;SDS011;16347;53.232;6.556;2023-08-01T13:16:07;5.85;;;1.85;;
29358;SDS011;16347;53.232;6.556;2023-08-01T13:18:35;3.70;;;1.00;;
29358;SDS011;16347;53.232;6.556;2023-08-01T13:21:10;7.43;;;1.15;;
29358;SDS011;16347;53.232;6.556;2023-08-01T13:23:39;9.45;;;1.73;;
29358;SDS011;16347;53.232;6.556;2023-08-01T13:26:07;8.13;;;1.20;;
29358;SDS011;16347;53.232;6.556;2023-08-01T13:28:36;5.22;;;1.65;;
29358;SDS011;16347;53.232;6.556;2023-08-01T13:31:03;4.90;;;0.88;;
29358;SDS011;16347;53.232;6.556;2023-08-01T13:33:31;7.85;;;1.02;;
29358;SDS011;16347;53.232;6.556;2023-08-01T13:35:59;4.97;;;1.20;;
29358;SDS011;16347;53.232;6.556;2023-08-01T13:38:29;44.72;;;4.10;;
29358;SDS011;16347;53.232;6.556;2023-08-01T13:41:00;13.98;;;1.90;;
29358;SDS011;16347;53.232;6.556;2023-08-01T13:43:28;19.77;;;2.28;;
29358;SDS011;16347;53.232;6.556;2023-08-01T13:45:56;11.40;;;1.48;;
29358;SDS011;16347;53.232;6.556;2023-08-01T13:48:24;15.48;;;2.05;;
29358;SDS011;16347;53.232;6.556;2023-08-01T13:50:52;9.15;;;1.65;;
29358;SDS011;16347;53.232;6.556;2023-08-01T13:53:24;7.03;;;1.35;;
29358;SDS011;16347;53.232;6.556;2023-08-01T13:55:52;16.23;;;1.73;;
29358;SDS011;16347;53.232;6.556;2023-08-01T13:58:23;6.32;;;1.30;;
29358;SDS011;16347;53.232;6.556;2023-08-01T14:00:51;6.25;;;1.02;;
29358;SDS011;16347;53.232;6.556;2023-08-01T14:03:19;7.90;;;1.40;;
29358;SDS011;16347;53.232;6.556;2023-08-01T14:05:47;5.85;;;1.10;;
29358;SDS011;16347;53.232;6.556;2023-08-01T14:08:15;5.45;;;1.00;;
29358;SDS011;16347;53.232;6.556;2023-08-01T14:10:43;5.88;;;0.93;;
29358;SDS011;16347;53.232;6.556;2023-08-01T14:13:11;3.20;;;0.95;;
29358;SDS011;16347;53.232;6.556;2023-08-01T14:15:40;8.10;;;1.00;;
29358;SDS011;16347;53.232;6.556;2023-08-01T14:18:08;5.03;;;1.10;;
29358;SDS011;16347;53.232;6.556;2023-08-01T14:20:36;4.53;;;0.90;;
29358;SDS011;16347;53.232;6.556;2023-08-01T14:23:04;4.97;;;1.33;;
29358;SDS011;16347;53.232;6.556;2023-08-01T14:25:32;7.30;;;0.98;;
29358;SDS011;16347;53.232;6.556;2023-08-01T14:28:00;10.80;;;1.80;;
29358;SDS011;16347;53.232;6.556;2023-08-01T14:30:28;2.97;;;0.80;;
29358;SDS011;16347;53.232;6.556;2023-08-01T14:33:00;8.52;;;1.40;;
29358;SDS011;16347;53.232;6.556;2023-08-01T14:35:28;4.75;;;1.13;;
29358;SDS011;16347;53.232;6.556;2023-08-01T14:37:57;9.48;;;1.38;;
29358;SDS011;16347;53.232;6.556;2023-08-01T14:40:25;7.20;;;1.50;;
29358;SDS011;16347;53.232;6.556;2023-08-01T14:42:53;6.30;;;1.27;;
29358;SDS011;16347;53.232;6.556;2023-08-01T14:45:21;5.88;;;0.90;;
29358;SDS011;16347;53.232;6.556;2023-08-01T14:47:49;4.57;;;1.08;;
29358;SDS011;16347;53.232;6.556;2023-08-01T14:50:19;10.05;;;1.30;;